Terminal Aerodrome Forecast
Issued by NWS Charleston, WV

Current Version | Previous Version | Text Only | Print | Product List | Glossary On
Versions: 1 2 3 4 5 6 7 8 9 10 11 12 13 14 15 16 17 18 19 20 21 22 23 24 25 26
000
FTUS41 KRLX 171400 AAA
TAFCRW
TAF AMD
KCRW 171405Z 1714/1812 13003KT 2SM BR FEW002 OVC005
     FM171530 00000KT P6SM FEW035
     FM180400 00000KT 1 1/2SM BR FEW035
     FM180500 28001KT 1/4SM FG BKN001=

USA.gov is the U.S. government's official web portal to all federal, state and local government web resources and services.